Avon, Maine
Current Conditions -  °F | °C
As of 6:35 PM on Monday 20 Oct 2014 (Local Time) from KWVL Reporting Station
Clear Clear  
Wind Chill: 45°   Ceiling: Unl
Heat Index: 45°   Visibility: 10mi
Dew Point: 25°   Wind: 0mph
Humidity: 46%   Direction: NA
Pressure: 29.91"   Gusts: NA
Location:  44.8921°N, 70.379°W
Report Text: KWVL 202235Z 00000KT 10SM CLR 07/M04 A2991 RMK AO1
Loading
Personal Weather Stations






























Interactive Weather Map
Tropical Storm Tracking
New forecast layout! Learn more

10-Day Weather Forecast

Advertisements
Track Severe Weather on mobile